createdAt,value
2018-07-05T00:00:28.819Z,14.90
2018-07-05T00:03:08.006Z,8.30
2018-07-05T00:05:47.181Z,9.30
2018-07-05T00:08:26.420Z,6.43
2018-07-05T00:11:05.733Z,8.73
2018-07-05T00:13:44.909Z,6.33
2018-07-05T00:16:24.218Z,6.40
2018-07-05T00:19:03.451Z,9.03
2018-07-05T00:21:42.693Z,7.77
2018-07-05T00:24:21.837Z,7.00
2018-07-05T00:27:01.161Z,9.53
2018-07-05T00:29:40.377Z,8.00
2018-07-05T00:32:19.630Z,8.53
2018-07-05T00:34:58.810Z,6.90
2018-07-05T00:37:38.051Z,7.53
2018-07-05T00:40:17.350Z,6.37
2018-07-05T00:42:56.493Z,6.37
2018-07-05T00:45:35.626Z,7.97
2018-07-05T00:48:14.795Z,6.20
2018-07-05T00:50:53.753Z,6.90
2018-07-05T00:53:33.049Z,9.00
2018-07-05T00:56:12.198Z,6.90
2018-07-05T00:58:51.505Z,8.03
2018-07-05T01:01:30.690Z,6.53
2018-07-05T01:04:10.844Z,6.77
2018-07-05T01:06:50.047Z,9.77
2018-07-05T01:09:29.346Z,8.30
2018-07-05T01:12:08.438Z,7.07
2018-07-05T01:14:47.745Z,9.33
2018-07-05T01:17:27.006Z,7.23
2018-07-05T01:20:06.161Z,5.80
2018-07-05T01:22:45.450Z,5.77
2018-07-05T01:25:24.518Z,8.23
2018-07-05T01:28:03.699Z,9.73
2018-07-05T01:30:42.658Z,9.13
2018-07-05T01:33:21.813Z,8.23
2018-07-05T01:36:00.937Z,10.20
2018-07-05T01:38:40.348Z,7.40
2018-07-05T01:41:19.583Z,6.90
2018-07-05T01:43:58.824Z,7.33
2018-07-05T01:46:37.967Z,6.80
2018-07-05T01:49:17.353Z,6.50
2018-07-05T01:51:56.596Z,6.53
2018-07-05T01:54:35.781Z,6.20
2018-07-05T01:57:14.812Z,8.90
2018-07-05T01:59:53.991Z,7.90
2018-07-05T02:02:33.152Z,6.63
2018-07-05T02:05:12.385Z,7.80
2018-07-05T02:07:51.672Z,10.53
2018-07-05T02:10:30.863Z,6.70
2018-07-05T02:13:10.132Z,9.77
2018-07-05T02:15:49.302Z,6.97
2018-07-05T02:18:28.345Z,6.07
2018-07-05T02:21:07.634Z,7.13
2018-07-05T02:23:46.883Z,6.47
2018-07-05T02:26:25.949Z,8.20
2018-07-05T02:29:05.265Z,7.33
2018-07-05T02:31:44.488Z,6.27
2018-07-05T02:34:23.661Z,6.90
2018-07-05T02:37:02.917Z,7.50
2018-07-05T02:39:47.742Z,9.07
2018-07-05T02:42:26.786Z,8.20
2018-07-05T02:45:05.966Z,9.37
2018-07-05T02:47:45.079Z,9.17
2018-07-05T02:50:24.544Z,6.37
2018-07-05T02:53:03.745Z,8.70
2018-07-05T02:55:42.823Z,8.30
2018-07-05T02:58:21.895Z,9.50
2018-07-05T03:01:01.110Z,12.57
2018-07-05T03:03:40.219Z,10.17
2018-07-05T03:06:19.501Z,11.30
2018-07-05T03:08:58.757Z,10.13
2018-07-05T03:11:37.975Z,10.70
2018-07-05T03:14:17.123Z,9.53
2018-07-05T03:16:56.349Z,11.87
2018-07-05T03:19:35.509Z,9.80
2018-07-05T03:22:14.717Z,9.70
2018-07-05T03:24:53.993Z,8.03
2018-07-05T03:27:33.595Z,9.53
2018-07-05T03:30:12.890Z,9.83
2018-07-05T03:32:52.270Z,14.67
2018-07-05T03:35:31.370Z,14.70
2018-07-05T03:38:10.488Z,11.20
2018-07-05T03:40:49.829Z,8.03
2018-07-05T03:43:28.936Z,9.60
2018-07-05T03:46:08.036Z,8.07
2018-07-05T03:48:47.318Z,14.60
2018-07-05T03:51:26.340Z,7.23
2018-07-05T03:54:05.448Z,8.67
2018-07-05T03:56:44.613Z,7.30
2018-07-05T03:59:23.933Z,10.93
2018-07-05T04:02:03.114Z,9.87
2018-07-05T04:04:42.466Z,7.83
2018-07-05T04:07:21.627Z,6.97
2018-07-05T04:10:00.895Z,7.77
2018-07-05T04:12:39.936Z,13.13
2018-07-05T04:15:19.249Z,44.67
2018-07-05T04:17:58.348Z,42.47
2018-07-05T04:20:37.554Z,33.90
2018-07-05T04:23:16.772Z,37.43
2018-07-05T04:25:56.078Z,49.17
2018-07-05T04:28:35.357Z,66.73
2018-07-05T04:31:14.440Z,47.13
2018-07-05T04:33:53.799Z,40.73
2018-07-05T04:36:33.036Z,32.53
2018-07-05T04:39:12.418Z,29.77
2018-07-05T04:41:51.832Z,28.10
2018-07-05T04:44:31.076Z,16.80
2018-07-05T04:47:10.238Z,18.30
2018-07-05T04:49:49.506Z,18.90
2018-07-05T04:52:28.640Z,11.07
2018-07-05T04:55:08.110Z,13.03
2018-07-05T04:57:47.515Z,12.23
2018-07-05T05:00:26.854Z,13.17
2018-07-05T05:03:06.151Z,18.43
2018-07-05T05:05:45.711Z,16.77
2018-07-05T05:08:24.940Z,10.30
2018-07-05T05:11:04.303Z,8.17
2018-07-05T05:13:43.471Z,23.07
2018-07-05T05:16:23.761Z,9.40
2018-07-05T05:19:03.037Z,15.83
2018-07-05T05:21:42.426Z,11.57
2018-07-05T05:24:21.510Z,7.50
2018-07-05T05:27:00.900Z,7.67
2018-07-05T05:29:40.313Z,8.83
2018-07-05T05:32:19.411Z,9.70
2018-07-05T05:34:58.664Z,12.50
2018-07-05T05:37:38.062Z,13.40
2018-07-05T05:40:17.190Z,9.33
2018-07-05T05:42:56.513Z,8.47
2018-07-05T05:45:35.510Z,10.67
2018-07-05T05:48:14.787Z,8.80
2018-07-05T05:50:53.828Z,9.23
2018-07-05T05:53:33.078Z,11.10
2018-07-05T05:56:12.181Z,9.30
2018-07-05T05:58:51.632Z,8.53
2018-07-05T06:01:30.820Z,7.63
2018-07-05T06:04:10.275Z,10.27
2018-07-05T06:06:49.513Z,7.90
2018-07-05T06:09:28.900Z,10.90
2018-07-05T06:12:08.128Z,9.37
2018-07-05T06:14:47.528Z,10.43
2018-07-05T06:17:26.768Z,10.87
2018-07-05T06:20:06.248Z,11.07
2018-07-05T06:22:45.453Z,12.40
2018-07-05T06:25:24.976Z,12.77
2018-07-05T06:28:04.115Z,12.23
2018-07-05T06:30:43.346Z,10.77
2018-07-05T06:33:22.548Z,10.87
2018-07-05T06:36:02.006Z,10.57
2018-07-05T06:38:41.266Z,12.77
2018-07-05T06:41:20.403Z,10.70
2018-07-05T06:43:59.570Z,12.80
2018-07-05T06:46:38.900Z,11.13
2018-07-05T06:49:18.023Z,9.33
2018-07-05T06:51:57.316Z,9.67
2018-07-05T06:54:36.410Z,10.13
2018-07-05T06:57:15.610Z,9.70
2018-07-05T06:59:54.942Z,9.10
2018-07-05T07:02:34.212Z,9.50
2018-07-05T07:05:13.683Z,13.63
2018-07-05T07:07:53.106Z,11.43
2018-07-05T07:10:32.307Z,10.27
2018-07-05T07:13:11.769Z,10.40
2018-07-05T07:15:50.775Z,10.20
2018-07-05T07:18:30.385Z,9.50
2018-07-05T07:21:09.727Z,12.27
2018-07-05T07:23:48.977Z,9.97
2018-07-05T07:26:28.380Z,11.17
2018-07-05T07:29:07.959Z,8.87
2018-07-05T07:31:47.230Z,12.43
2018-07-05T07:34:26.669Z,8.77
2018-07-05T07:37:05.972Z,11.30
2018-07-05T07:39:45.037Z,9.33
2018-07-05T07:42:11.875Z,8.77
2018-07-05T07:44:38.699Z,9.73
2018-07-05T07:47:05.552Z,9.47
2018-07-05T07:49:32.490Z,9.13
2018-07-05T07:51:59.224Z,13.60
2018-07-05T07:54:25.965Z,10.40
2018-07-05T07:56:52.747Z,10.10
2018-07-05T07:59:19.469Z,9.00
2018-07-05T08:01:46.272Z,8.83
2018-07-05T08:04:13.037Z,8.63
2018-07-05T08:06:39.979Z,12.10
2018-07-05T08:09:06.897Z,6.83
2018-07-05T08:11:33.932Z,8.70
2018-07-05T08:14:00.746Z,7.53
2018-07-05T08:16:27.548Z,6.37
2018-07-05T08:18:54.412Z,6.53
2018-07-05T08:21:21.261Z,6.70
2018-07-05T08:23:48.059Z,7.07
2018-07-05T08:26:14.836Z,11.33
2018-07-05T08:28:41.821Z,7.23
2018-07-05T08:31:08.701Z,7.63
2018-07-05T08:33:35.592Z,10.57
2018-07-05T08:36:02.559Z,8.23
2018-07-05T08:38:29.652Z,6.60
2018-07-05T08:40:56.798Z,6.47
2018-07-05T08:43:23.885Z,6.93
2018-07-05T08:45:51.105Z,8.03
2018-07-05T08:48:18.070Z,6.80
2018-07-05T08:50:45.028Z,8.57
2018-07-05T08:53:12.527Z,8.80
2018-07-05T08:55:39.488Z,7.43
2018-07-05T08:58:06.399Z,7.47
2018-07-05T09:00:33.430Z,7.08
2018-07-05T09:03:00.363Z,7.17
2018-07-05T09:05:27.326Z,7.62
2018-07-05T09:07:54.298Z,7.90
2018-07-05T09:10:21.270Z,10.72
2018-07-05T09:12:48.223Z,8.33
2018-07-05T09:15:15.178Z,7.62
2018-07-05T09:17:42.069Z,9.43
2018-07-05T09:20:08.939Z,7.70
2018-07-05T09:22:35.969Z,15.43
2018-07-05T09:25:02.833Z,10.68
2018-07-05T09:27:29.697Z,10.32
2018-07-05T09:29:56.612Z,9.50
2018-07-05T09:32:23.588Z,10.70
2018-07-05T09:34:50.755Z,8.97
2018-07-05T09:37:17.846Z,8.90
2018-07-05T09:39:44.846Z,9.50
2018-07-05T09:42:11.771Z,11.05
2018-07-05T09:44:38.720Z,8.90
2018-07-05T09:47:05.596Z,8.75
2018-07-05T09:49:32.544Z,10.40
2018-07-05T09:51:59.694Z,9.23
2018-07-05T09:54:26.560Z,8.83
2018-07-05T09:56:53.579Z,7.85
2018-07-05T09:59:20.711Z,9.20
2018-07-05T10:01:47.657Z,12.50
2018-07-05T10:04:14.596Z,11.18
2018-07-05T10:06:41.691Z,8.20
2018-07-05T10:09:08.468Z,9.58
2018-07-05T10:11:35.412Z,9.93
2018-07-05T10:14:02.316Z,8.65
2018-07-05T10:16:29.079Z,8.90
2018-07-05T10:18:56.124Z,10.10
2018-07-05T10:21:23.032Z,9.60
2018-07-05T10:23:49.863Z,9.70
2018-07-05T10:26:16.696Z,11.70
2018-07-05T10:28:56.035Z,9.93
2018-07-05T10:31:35.348Z,9.53
2018-07-05T10:34:02.274Z,13.32
2018-07-05T10:36:29.429Z,9.38
2018-07-05T10:38:56.404Z,9.53
2018-07-05T10:41:35.786Z,10.25
2018-07-05T10:44:14.847Z,9.90
2018-07-05T10:46:54.147Z,10.32
2018-07-05T10:49:33.383Z,11.97
2018-07-05T10:52:12.585Z,10.80
2018-07-05T10:54:51.862Z,9.75
2018-07-05T10:57:31.058Z,10.75
2018-07-05T11:00:10.393Z,10.85
2018-07-05T11:02:49.596Z,11.65
2018-07-05T11:05:28.914Z,10.95
2018-07-05T11:08:08.132Z,14.75
2018-07-05T11:10:47.270Z,12.23
2018-07-05T11:13:26.653Z,12.63
2018-07-05T11:16:05.946Z,11.12
2018-07-05T11:18:45.381Z,11.48
2018-07-05T11:21:24.531Z,12.82
2018-07-05T11:24:04.088Z,11.08
2018-07-05T11:26:43.432Z,11.28
2018-07-05T11:29:22.822Z,10.48
2018-07-05T11:32:02.247Z,9.83
2018-07-05T11:34:41.846Z,11.25
2018-07-05T11:37:21.160Z,11.30
2018-07-05T11:40:00.416Z,13.55
2018-07-05T11:42:39.889Z,11.30
2018-07-05T11:45:19.194Z,10.70
2018-07-05T11:47:58.561Z,9.50
2018-07-05T11:50:38.088Z,11.57
2018-07-05T11:53:17.464Z,9.58
2018-07-05T11:55:56.582Z,11.68
2018-07-05T11:58:35.785Z,10.55
2018-07-05T12:01:15.326Z,12.68
2018-07-05T12:03:54.641Z,10.13
2018-07-05T12:06:34.054Z,11.45
2018-07-05T12:09:13.454Z,10.58
2018-07-05T12:11:52.760Z,9.63
2018-07-05T12:14:31.869Z,10.13
2018-07-05T12:17:11.105Z,11.93
2018-07-05T12:19:50.470Z,9.53
2018-07-05T12:22:29.956Z,9.98
2018-07-05T12:25:09.171Z,10.60
2018-07-05T12:27:48.244Z,10.55
2018-07-05T12:30:27.437Z,12.70
2018-07-05T12:33:06.719Z,9.55
2018-07-05T12:35:45.883Z,9.83
2018-07-05T12:38:25.018Z,9.43
2018-07-05T12:41:04.210Z,11.35
2018-07-05T12:43:43.523Z,9.30
2018-07-05T12:46:22.996Z,10.48
2018-07-05T12:49:02.189Z,10.65
2018-07-05T12:51:41.261Z,9.83
2018-07-05T12:54:20.944Z,8.63
2018-07-05T12:57:00.498Z,8.68
2018-07-05T12:59:40.018Z,9.58
2018-07-05T13:02:19.182Z,9.35
2018-07-05T13:04:58.582Z,8.60
2018-07-05T13:07:37.852Z,11.30
2018-07-05T13:10:17.266Z,9.95
2018-07-05T13:12:56.807Z,10.00
2018-07-05T13:15:36.428Z,9.33
2018-07-05T13:18:15.774Z,8.48
2018-07-05T13:20:55.267Z,8.58
2018-07-05T13:23:34.565Z,8.70
2018-07-05T13:26:14.755Z,9.38
2018-07-05T13:28:53.825Z,9.25
2018-07-05T13:31:33.101Z,8.28
2018-07-05T13:34:12.182Z,8.65
2018-07-05T13:36:51.807Z,9.78
2018-07-05T13:39:31.030Z,14.93
2018-07-05T13:42:10.452Z,9.13
2018-07-05T13:44:49.764Z,11.43
2018-07-05T13:47:29.159Z,9.48
2018-07-05T13:50:08.526Z,10.13
2018-07-05T13:52:47.887Z,9.80
2018-07-05T13:55:27.144Z,9.73
2018-07-05T13:58:06.232Z,8.63
2018-07-05T14:00:45.760Z,9.03
2018-07-05T14:03:24.952Z,7.53
2018-07-05T14:06:04.118Z,8.48
2018-07-05T14:08:43.368Z,7.87
2018-07-05T14:11:22.611Z,10.60
2018-07-05T14:14:01.949Z,9.18
2018-07-05T14:16:41.057Z,8.23
2018-07-05T14:19:20.477Z,9.38
2018-07-05T14:21:59.659Z,7.47
2018-07-05T14:24:39.074Z,7.40
2018-07-05T14:27:18.322Z,7.90
2018-07-05T14:29:57.584Z,8.17
2018-07-05T14:32:36.863Z,11.23
2018-07-05T14:35:16.254Z,7.45
2018-07-05T14:37:55.334Z,7.30
2018-07-05T14:40:34.748Z,6.90
2018-07-05T14:43:14.029Z,7.37
2018-07-05T14:45:53.232Z,7.55
2018-07-05T14:48:32.678Z,7.55
2018-07-05T14:51:11.948Z,7.60
2018-07-05T14:53:51.244Z,7.50
2018-07-05T14:56:30.805Z,7.58
2018-07-05T14:59:09.952Z,7.60
2018-07-05T15:01:49.615Z,7.27
2018-07-05T15:04:28.891Z,7.53
2018-07-05T15:07:08.458Z,7.57
2018-07-05T15:09:47.731Z,8.00
2018-07-05T15:12:27.030Z,7.70
2018-07-05T15:15:06.522Z,6.85
2018-07-05T15:17:45.750Z,7.12
2018-07-05T15:20:25.058Z,6.42
2018-07-05T15:23:04.485Z,6.47
2018-07-05T15:25:43.776Z,8.70
2018-07-05T15:28:23.048Z,8.33
2018-07-05T15:31:02.271Z,8.53
2018-07-05T15:33:41.519Z,7.35
2018-07-05T15:36:20.816Z,8.07
2018-07-05T15:39:00.184Z,6.92
2018-07-05T15:41:39.321Z,6.83
2018-07-05T15:44:18.638Z,8.67
2018-07-05T15:46:58.067Z,7.12
2018-07-05T15:49:37.422Z,6.77
2018-07-05T15:52:16.684Z,8.77
2018-07-05T15:54:56.742Z,7.53
2018-07-05T15:57:36.125Z,7.67
2018-07-05T16:00:15.351Z,6.78
2018-07-05T16:02:54.662Z,6.92
2018-07-05T16:05:34.031Z,7.80
2018-07-05T16:08:13.296Z,7.67
2018-07-05T16:10:52.412Z,8.33
2018-07-05T16:13:31.862Z,7.60
2018-07-05T16:16:10.956Z,7.37
2018-07-05T16:18:50.063Z,8.40
2018-07-05T16:21:29.118Z,7.80
2018-07-05T16:24:08.548Z,7.87
2018-07-05T16:26:47.995Z,9.97
2018-07-05T16:29:27.312Z,9.00
2018-07-05T16:32:06.623Z,8.97
2018-07-05T16:34:45.698Z,9.93
2018-07-05T16:37:25.037Z,9.60
2018-07-05T16:40:04.788Z,9.87
2018-07-05T16:42:44.113Z,11.13
2018-07-05T16:45:23.478Z,9.63
2018-07-05T16:48:02.773Z,9.37
2018-07-05T16:50:41.863Z,8.80
2018-07-05T16:53:21.103Z,10.87
2018-07-05T16:56:00.140Z,9.53
2018-07-05T16:58:39.449Z,9.60
2018-07-05T17:01:18.809Z,9.73
2018-07-05T17:03:57.920Z,13.33
2018-07-05T17:06:37.263Z,9.97
2018-07-05T17:09:16.470Z,10.37
2018-07-05T17:11:56.611Z,10.37
2018-07-05T17:14:36.043Z,10.33
2018-07-05T17:17:15.462Z,11.90
2018-07-05T17:19:54.556Z,11.83
2018-07-05T17:22:33.618Z,9.57
2018-07-05T17:25:12.770Z,13.40
2018-07-05T17:27:52.002Z,10.43
2018-07-05T17:30:31.085Z,8.70
2018-07-05T17:33:10.497Z,9.77
2018-07-05T17:35:49.784Z,10.70
2018-07-05T17:38:29.106Z,10.17
2018-07-05T17:41:08.044Z,10.00
2018-07-05T17:43:47.451Z,9.77
2018-07-05T17:46:26.760Z,10.83
2018-07-05T17:49:06.052Z,13.57
2018-07-05T17:51:45.357Z,10.87
2018-07-05T17:54:24.563Z,11.40
2018-07-05T17:57:03.772Z,11.07
2018-07-05T17:59:42.794Z,10.70
2018-07-05T18:02:22.042Z,11.37
2018-07-05T18:05:01.190Z,10.53
2018-07-05T18:07:40.510Z,12.97
2018-07-05T18:10:19.611Z,10.47
2018-07-05T18:12:59.029Z,11.77
2018-07-05T18:15:38.190Z,10.30
2018-07-05T18:18:17.669Z,13.03
2018-07-05T18:20:56.947Z,9.63
2018-07-05T18:23:36.451Z,9.60
2018-07-05T18:26:15.933Z,10.67
2018-07-05T18:28:55.206Z,11.87
2018-07-05T18:31:34.620Z,10.93
2018-07-05T18:34:14.009Z,14.33
2018-07-05T18:36:53.348Z,12.50
2018-07-05T18:39:32.396Z,11.13
2018-07-05T18:42:11.800Z,9.77
2018-07-05T18:44:51.309Z,10.63
2018-07-05T18:47:30.466Z,10.40
2018-07-05T18:50:09.810Z,11.43
2018-07-05T18:52:48.888Z,10.97
2018-07-05T18:55:28.401Z,11.23
2018-07-05T18:58:07.486Z,10.43
2018-07-05T19:00:46.680Z,12.67
2018-07-05T19:03:26.040Z,10.03
2018-07-05T19:06:05.470Z,11.53
2018-07-05T19:08:44.849Z,10.93
2018-07-05T19:11:24.444Z,11.13
2018-07-05T19:14:03.653Z,11.57
2018-07-05T19:16:42.978Z,11.00
2018-07-05T19:19:22.294Z,10.70
2018-07-05T19:22:01.554Z,12.67
2018-07-05T19:24:41.082Z,11.93
2018-07-05T19:27:20.533Z,11.23
2018-07-05T19:29:59.811Z,11.10
2018-07-05T19:32:39.060Z,10.70
2018-07-05T19:35:18.322Z,13.00
2018-07-05T19:37:57.384Z,12.40
2018-07-05T19:40:36.646Z,11.13
2018-07-05T19:43:15.850Z,14.17
2018-07-05T19:45:55.004Z,12.50
2018-07-05T19:48:34.298Z,11.83
2018-07-05T19:51:13.618Z,11.80
2018-07-05T19:53:52.970Z,14.77
2018-07-05T19:56:32.141Z,13.23
2018-07-05T19:59:11.458Z,12.67
2018-07-05T20:01:50.729Z,11.70
2018-07-05T20:04:30.155Z,15.13
2018-07-05T20:07:09.286Z,14.20
2018-07-05T20:09:48.727Z,12.60
2018-07-05T20:12:27.880Z,12.83
2018-07-05T20:15:07.229Z,14.83
2018-07-05T20:17:46.610Z,13.27
2018-07-05T20:20:25.771Z,15.17
2018-07-05T20:23:04.977Z,11.53
2018-07-05T20:25:44.250Z,14.17
2018-07-05T20:28:23.425Z,12.77
2018-07-05T20:31:02.527Z,15.87
2018-07-05T20:33:41.722Z,15.30
2018-07-05T20:36:20.880Z,12.63
2018-07-05T20:39:00.019Z,15.53
2018-07-05T20:41:39.215Z,13.23
2018-07-05T20:44:18.586Z,13.73
2018-07-05T20:46:57.963Z,13.30
2018-07-05T20:49:37.147Z,17.70
2018-07-05T20:52:16.471Z,14.43
2018-07-05T20:54:55.597Z,13.33
2018-07-05T20:57:35.028Z,15.03
2018-07-05T21:00:14.219Z,15.53
2018-07-05T21:02:53.474Z,13.10
2018-07-05T21:05:32.651Z,15.87
2018-07-05T21:08:11.947Z,14.77
2018-07-05T21:10:51.023Z,13.50
2018-07-05T21:13:30.438Z,14.57
2018-07-05T21:16:09.682Z,17.40
2018-07-05T21:18:48.912Z,16.37
2018-07-05T21:21:27.946Z,13.17
2018-07-05T21:24:07.355Z,14.17
2018-07-05T21:26:46.636Z,16.00
2018-07-05T21:29:25.752Z,17.93
2018-07-05T21:32:05.097Z,15.97
2018-07-05T21:34:44.234Z,14.70
2018-07-05T21:37:23.536Z,14.87
2018-07-05T21:40:02.819Z,16.73
2018-07-05T21:42:41.953Z,17.00
2018-07-05T21:45:21.217Z,15.30
2018-07-05T21:48:00.443Z,18.00
2018-07-05T21:50:39.708Z,20.67
2018-07-05T21:53:18.923Z,15.80
2018-07-05T21:55:58.086Z,14.23
2018-07-05T21:58:37.349Z,14.50
2018-07-05T22:01:16.585Z,16.47
2018-07-05T22:03:55.867Z,15.70
2018-07-05T22:06:35.415Z,15.23
2018-07-05T22:09:14.661Z,14.30
2018-07-05T22:11:54.151Z,16.63
2018-07-05T22:14:33.345Z,15.00
2018-07-05T22:17:18.090Z,16.07
2018-07-05T22:20:03.097Z,16.13
2018-07-05T22:22:48.153Z,13.83
2018-07-05T22:25:33.014Z,15.37
2018-07-05T22:28:17.728Z,18.00
2018-07-05T22:31:02.189Z,15.87
2018-07-05T22:33:41.196Z,14.20
2018-07-05T22:36:20.506Z,17.23
2018-07-05T22:38:59.643Z,19.40
2018-07-05T22:41:38.824Z,16.20
2018-07-05T22:44:18.236Z,17.57
2018-07-05T22:46:57.491Z,16.07
2018-07-05T22:49:36.664Z,17.40
2018-07-05T22:52:15.839Z,17.47
2018-07-05T22:54:55.029Z,18.53
2018-07-05T22:57:34.251Z,17.90
2018-07-05T23:00:13.491Z,17.10
2018-07-05T23:02:52.660Z,15.87
2018-07-05T23:05:31.875Z,17.47
2018-07-05T23:08:11.209Z,16.43
2018-07-05T23:10:50.471Z,16.77
2018-07-05T23:13:29.569Z,17.80
2018-07-05T23:16:08.858Z,21.27
2018-07-05T23:18:48.100Z,16.63
2018-07-05T23:21:27.336Z,15.63
2018-07-05T23:24:06.581Z,15.50
2018-07-05T23:26:45.717Z,14.77
2018-07-05T23:29:24.880Z,14.20
2018-07-05T23:32:04.128Z,18.27
2018-07-05T23:34:43.512Z,16.63
2018-07-05T23:37:22.730Z,18.30
2018-07-05T23:40:01.852Z,15.37
2018-07-05T23:42:41.109Z,16.80
2018-07-05T23:45:20.117Z,17.77
2018-07-05T23:47:59.319Z,16.30
2018-07-05T23:50:38.708Z,15.70
2018-07-05T23:53:17.887Z,18.03
2018-07-05T23:55:56.868Z,19.30
2018-07-05T23:58:36.203Z,16.40
